sensor_id;sensor_type;location;lat;lon;timestamp;pressure;altitude;pressure_sealevel;temperature;humidity
22261;BME280;11299;43.202;27.920;2023-04-19T00:00:38;100514.50;;;11.44;100.00
22261;BME280;11299;43.202;27.920;2023-04-19T00:03:08;100672.00;;;12.25;100.00
22261;BME280;11299;43.202;27.920;2023-04-19T00:05:34;100714.94;;;12.54;100.00
22261;BME280;11299;43.202;27.920;2023-04-19T00:07:59;100711.06;;;12.55;100.00
22261;BME280;11299;43.202;27.920;2023-04-19T00:10:25;100696.63;;;12.53;100.00
22261;BME280;11299;43.202;27.920;2023-04-19T00:12:51;100746.78;;;12.47;100.00
22261;BME280;11299;43.202;27.920;2023-04-19T00:15:17;100681.66;;;12.54;100.00
22261;BME280;11299;43.202;27.920;2023-04-19T00:17:42;100663.78;;;12.35;100.00
22261;BME280;11299;43.202;27.920;2023-04-19T00:20:09;100693.94;;;12.68;100.00
22261;BME280;11299;43.202;27.920;2023-04-19T00:22:35;100661.94;;;12.51;100.00
22261;BME280;11299;43.202;27.920;2023-04-19T00:25:01;100695.81;;;12.53;100.00
22261;BME280;11299;43.202;27.920;2023-04-19T00:27:26;100632.59;;;12.18;100.00
22261;BME280;11299;43.202;27.920;2023-04-19T00:29:52;100712.28;;;12.69;100.00
22261;BME280;11299;43.202;27.920;2023-04-19T00:32:17;100445.91;;;11.14;100.00
22261;BME280;11299;43.202;27.920;2023-04-19T00:34:43;100686.09;;;12.55;100.00
22261;BME280;11299;43.202;27.920;2023-04-19T00:37:09;100697.28;;;12.70;100.00
22261;BME280;11299;43.202;27.920;2023-04-19T00:39:35;100678.97;;;12.69;100.00
22261;BME280;11299;43.202;27.920;2023-04-19T00:42:01;100592.09;;;12.12;100.00
22261;BME280;11299;43.202;27.920;2023-04-19T00:44:26;100675.63;;;12.67;100.00
22261;BME280;11299;43.202;27.920;2023-04-19T00:46:52;100695.66;;;12.79;100.00
22261;BME280;11299;43.202;27.920;2023-04-19T00:49:19;100706.53;;;12.86;100.00
22261;BME280;11299;43.202;27.920;2023-04-19T00:51:45;100702.97;;;12.90;100.00
22261;BME280;11299;43.202;27.920;2023-04-19T00:54:12;100515.72;;;11.89;100.00
22261;BME280;11299;43.202;27.920;2023-04-19T00:56:39;100590.03;;;12.39;100.00
22261;BME280;11299;43.202;27.920;2023-04-19T00:59:05;100680.75;;;12.90;100.00
22261;BME280;11299;43.202;27.920;2023-04-19T01:01:31;100692.38;;;12.87;100.00
22261;BME280;11299;43.202;27.920;2023-04-19T01:03:57;100615.50;;;12.31;100.00
22261;BME280;11299;43.202;27.920;2023-04-19T01:06:22;100647.31;;;12.65;100.00
22261;BME280;11299;43.202;27.920;2023-04-19T01:08:48;100655.06;;;12.58;100.00
22261;BME280;11299;43.202;27.920;2023-04-19T01:11:13;100717.75;;;13.06;100.00
22261;BME280;11299;43.202;27.920;2023-04-19T01:13:39;100689.13;;;13.00;100.00
22261;BME280;11299;43.202;27.920;2023-04-19T01:16:05;100712.66;;;12.93;100.00
22261;BME280;11299;43.202;27.920;2023-04-19T01:18:31;100678.03;;;12.54;100.00
22261;BME280;11299;43.202;27.920;2023-04-19T01:21:02;100580.44;;;12.10;100.00
22261;BME280;11299;43.202;27.920;2023-04-19T01:23:28;100583.69;;;11.65;100.00
22261;BME280;11299;43.202;27.920;2023-04-19T01:25:53;100693.91;;;12.58;100.00
22261;BME280;11299;43.202;27.920;2023-04-19T01:28:19;100699.91;;;12.87;100.00
22261;BME280;11299;43.202;27.920;2023-04-19T01:30:44;100595.44;;;12.14;100.00
22261;BME280;11299;43.202;27.920;2023-04-19T01:33:10;100644.47;;;12.50;100.00
22261;BME280;11299;43.202;27.920;2023-04-19T01:35:36;100552.41;;;11.70;100.00
22261;BME280;11299;43.202;27.920;2023-04-19T01:38:01;100688.91;;;12.60;100.00
22261;BME280;11299;43.202;27.920;2023-04-19T01:40:27;100650.75;;;12.36;100.00
22261;BME280;11299;43.202;27.920;2023-04-19T01:42:52;100683.88;;;12.52;100.00
22261;BME280;11299;43.202;27.920;2023-04-19T01:45:18;100680.13;;;12.78;100.00
22261;BME280;11299;43.202;27.920;2023-04-19T01:47:44;100628.34;;;12.47;100.00
22261;BME280;11299;43.202;27.920;2023-04-19T01:50:09;100653.44;;;12.67;100.00
22261;BME280;11299;43.202;27.920;2023-04-19T01:52:35;100585.50;;;12.23;100.00
22261;BME280;11299;43.202;27.920;2023-04-19T01:55:00;100682.63;;;12.75;100.00
22261;BME280;11299;43.202;27.920;2023-04-19T01:57:26;100655.84;;;12.49;100.00
22261;BME280;11299;43.202;27.920;2023-04-19T01:59:54;100657.84;;;12.63;100.00
22261;BME280;11299;43.202;27.920;2023-04-19T02:02:20;100671.69;;;12.58;100.00
22261;BME280;11299;43.202;27.920;2023-04-19T02:04:45;100680.41;;;12.77;100.00
22261;BME280;11299;43.202;27.920;2023-04-19T02:07:14;100686.75;;;12.72;100.00
22261;BME280;11299;43.202;27.920;2023-04-19T02:09:39;100670.09;;;12.67;100.00
22261;BME280;11299;43.202;27.920;2023-04-19T02:12:05;100661.22;;;12.70;100.00
22261;BME280;11299;43.202;27.920;2023-04-19T02:14:30;100675.69;;;12.77;100.00
22261;BME280;11299;43.202;27.920;2023-04-19T02:16:57;100548.19;;;11.94;100.00
22261;BME280;11299;43.202;27.920;2023-04-19T02:19:22;100672.00;;;12.62;100.00
22261;BME280;11299;43.202;27.920;2023-04-19T02:21:48;100680.16;;;12.42;100.00
22261;BME280;11299;43.202;27.920;2023-04-19T02:24:13;100559.31;;;12.04;100.00
22261;BME280;11299;43.202;27.920;2023-04-19T02:26:39;100641.91;;;12.44;100.00
22261;BME280;11299;43.202;27.920;2023-04-19T02:29:05;100663.94;;;12.60;100.00
22261;BME280;11299;43.202;27.920;2023-04-19T02:31:31;100643.41;;;12.61;100.00
22261;BME280;11299;43.202;27.920;2023-04-19T02:33:56;100538.81;;;12.05;100.00
22261;BME280;11299;43.202;27.920;2023-04-19T02:36:22;100659.56;;;12.74;100.00
22261;BME280;11299;43.202;27.920;2023-04-19T02:38:47;100589.56;;;12.52;100.00
22261;BME280;11299;43.202;27.920;2023-04-19T02:41:13;100696.13;;;13.08;100.00
22261;BME280;11299;43.202;27.920;2023-04-19T02:43:38;100599.28;;;12.55;100.00
22261;BME280;11299;43.202;27.920;2023-04-19T02:46:04;100620.75;;;12.79;100.00
22261;BME280;11299;43.202;27.920;2023-04-19T02:48:29;100622.69;;;12.79;100.00
22261;BME280;11299;43.202;27.920;2023-04-19T02:50:55;100620.50;;;12.86;100.00
22261;BME280;11299;43.202;27.920;2023-04-19T02:53:20;100457.22;;;11.81;100.00
22261;BME280;11299;43.202;27.920;2023-04-19T02:55:45;100606.88;;;12.79;100.00
22261;BME280;11299;43.202;27.920;2023-04-19T02:58:11;100566.28;;;12.58;100.00
22261;BME280;11299;43.202;27.920;2023-04-19T03:00:36;100612.72;;;12.83;100.00
22261;BME280;11299;43.202;27.920;2023-04-19T03:03:02;100653.03;;;13.00;100.00
22261;BME280;11299;43.202;27.920;2023-04-19T03:05:31;100531.19;;;12.32;100.00
22261;BME280;11299;43.202;27.920;2023-04-19T03:07:57;100674.53;;;13.20;100.00
22261;BME280;11299;43.202;27.920;2023-04-19T03:10:22;100645.13;;;13.29;100.00
22261;BME280;11299;43.202;27.920;2023-04-19T03:12:47;100610.91;;;13.13;100.00
22261;BME280;11299;43.202;27.920;2023-04-19T03:15:13;100620.03;;;13.04;100.00
22261;BME280;11299;43.202;27.920;2023-04-19T03:17:38;100565.72;;;12.56;100.00
22261;BME280;11299;43.202;27.920;2023-04-19T03:20:05;100655.88;;;13.10;100.00
22261;BME280;11299;43.202;27.920;2023-04-19T03:22:36;100605.53;;;12.92;100.00
22261;BME280;11299;43.202;27.920;2023-04-19T03:25:02;100544.06;;;12.53;100.00
22261;BME280;11299;43.202;27.920;2023-04-19T03:27:28;100627.75;;;12.97;100.00
22261;BME280;11299;43.202;27.920;2023-04-19T03:29:54;100608.56;;;12.85;100.00
22261;BME280;11299;43.202;27.920;2023-04-19T03:32:20;100614.94;;;12.86;100.00
22261;BME280;11299;43.202;27.920;2023-04-19T03:34:45;100653.59;;;12.97;100.00
22261;BME280;11299;43.202;27.920;2023-04-19T03:37:11;100665.25;;;12.99;100.00
22261;BME280;11299;43.202;27.920;2023-04-19T03:39:36;100634.72;;;12.94;100.00
22261;BME280;11299;43.202;27.920;2023-04-19T03:42:02;100628.84;;;12.91;100.00
22261;BME280;11299;43.202;27.920;2023-04-19T03:44:30;100479.22;;;12.02;100.00
22261;BME280;11299;43.202;27.920;2023-04-19T03:46:56;100515.09;;;12.24;100.00
22261;BME280;11299;43.202;27.920;2023-04-19T03:49:21;100603.78;;;12.71;100.00
22261;BME280;11299;43.202;27.920;2023-04-19T03:51:47;100598.84;;;12.83;100.00
22261;BME280;11299;43.202;27.920;2023-04-19T03:54:12;100625.91;;;13.07;100.00
22261;BME280;11299;43.202;27.920;2023-04-19T03:56:38;100590.78;;;12.76;100.00
22261;BME280;11299;43.202;27.920;2023-04-19T03:59:03;100594.06;;;12.68;100.00
22261;BME280;11299;43.202;27.920;2023-04-19T04:01:29;100645.78;;;12.89;100.00
22261;BME280;11299;43.202;27.920;2023-04-19T04:03:54;100563.47;;;12.53;100.00
22261;BME280;11299;43.202;27.920;2023-04-19T04:06:20;100651.75;;;13.13;100.00
22261;BME280;11299;43.202;27.920;2023-04-19T04:08:45;100651.47;;;13.19;100.00
22261;BME280;11299;43.202;27.920;2023-04-19T04:11:11;100656.75;;;13.16;100.00
22261;BME280;11299;43.202;27.920;2023-04-19T04:13:36;100604.63;;;12.71;100.00
22261;BME280;11299;43.202;27.920;2023-04-19T04:16:01;100516.22;;;12.28;100.00
22261;BME280;11299;43.202;27.920;2023-04-19T04:18:27;100643.88;;;13.00;100.00
22261;BME280;11299;43.202;27.920;2023-04-19T04:20:53;100658.09;;;13.03;100.00
22261;BME280;11299;43.202;27.920;2023-04-19T04:23:18;100670.25;;;12.97;100.00
22261;BME280;11299;43.202;27.920;2023-04-19T04:25:45;100588.44;;;12.53;100.00
22261;BME280;11299;43.202;27.920;2023-04-19T04:28:11;100649.16;;;13.01;100.00
22261;BME280;11299;43.202;27.920;2023-04-19T04:30:38;100651.31;;;12.89;100.00
22261;BME280;11299;43.202;27.920;2023-04-19T04:33:04;100688.09;;;13.11;100.00
22261;BME280;11299;43.202;27.920;2023-04-19T04:35:30;100579.09;;;12.69;100.00
22261;BME280;11299;43.202;27.920;2023-04-19T04:37:55;100626.06;;;12.91;100.00
22261;BME280;11299;43.202;27.920;2023-04-19T04:40:21;100554.59;;;12.51;100.00
22261;BME280;11299;43.202;27.920;2023-04-19T04:42:47;100653.09;;;13.10;100.00
22261;BME280;11299;43.202;27.920;2023-04-19T04:45:13;100547.94;;;12.52;100.00
22261;BME280;11299;43.202;27.920;2023-04-19T04:47:42;100462.59;;;12.07;100.00
22261;BME280;11299;43.202;27.920;2023-04-19T04:50:10;100669.78;;;13.10;100.00
22261;BME280;11299;43.202;27.920;2023-04-19T04:52:35;100564.59;;;12.57;100.00
22261;BME280;11299;43.202;27.920;2023-04-19T04:55:01;100524.25;;;11.83;100.00
22261;BME280;11299;43.202;27.920;2023-04-19T04:57:26;100485.09;;;12.11;100.00
22261;BME280;11299;43.202;27.920;2023-04-19T04:59:52;100556.28;;;12.57;100.00
22261;BME280;11299;43.202;27.920;2023-04-19T05:02:17;100591.84;;;12.65;100.00
22261;BME280;11299;43.202;27.920;2023-04-19T05:04:43;100609.91;;;12.78;100.00
22261;BME280;11299;43.202;27.920;2023-04-19T05:07:08;100660.25;;;13.01;100.00
22261;BME280;11299;43.202;27.920;2023-04-19T05:09:34;100565.56;;;12.26;100.00
22261;BME280;11299;43.202;27.920;2023-04-19T05:11:59;100644.63;;;12.75;100.00
22261;BME280;11299;43.202;27.920;2023-04-19T05:14:25;100703.81;;;12.96;100.00
22261;BME280;11299;43.202;27.920;2023-04-19T05:16:51;100518.84;;;11.98;100.00
22261;BME280;11299;43.202;27.920;2023-04-19T05:19:16;100621.72;;;12.53;100.00
22261;BME280;11299;43.202;27.920;2023-04-19T05:21:42;100634.59;;;12.69;100.00
22261;BME280;11299;43.202;27.920;2023-04-19T05:24:07;100669.66;;;12.90;100.00
22261;BME280;11299;43.202;27.920;2023-04-19T05:26:34;100656.22;;;12.72;100.00
22261;BME280;11299;43.202;27.920;2023-04-19T05:28:59;100593.31;;;12.31;100.00
22261;BME280;11299;43.202;27.920;2023-04-19T05:31:25;100620.16;;;12.67;100.00
22261;BME280;11299;43.202;27.920;2023-04-19T05:33:50;100578.34;;;12.32;100.00
22261;BME280;11299;43.202;27.920;2023-04-19T05:36:16;100588.72;;;12.52;100.00
22261;BME280;11299;43.202;27.920;2023-04-19T05:38:41;100689.81;;;13.23;100.00
22261;BME280;11299;43.202;27.920;2023-04-19T05:41:07;100641.88;;;12.85;100.00
22261;BME280;11299;43.202;27.920;2023-04-19T05:43:32;100680.66;;;13.27;100.00
22261;BME280;11299;43.202;27.920;2023-04-19T05:45:58;100527.19;;;12.08;100.00
22261;BME280;11299;43.202;27.920;2023-04-19T05:48:23;100612.31;;;12.59;100.00
22261;BME280;11299;43.202;27.920;2023-04-19T05:50:50;100670.84;;;13.04;100.00
22261;BME280;11299;43.202;27.920;2023-04-19T05:53:16;100526.41;;;12.12;100.00
22261;BME280;11299;43.202;27.920;2023-04-19T05:55:42;100625.75;;;12.77;100.00
22261;BME280;11299;43.202;27.920;2023-04-19T05:58:09;100621.84;;;12.78;100.00
22261;BME280;11299;43.202;27.920;2023-04-19T06:00:35;100517.81;;;12.19;100.00
22261;BME280;11299;43.202;27.920;2023-04-19T06:03:01;100464.44;;;11.87;100.00
22261;BME280;11299;43.202;27.920;2023-04-19T06:05:26;100670.63;;;13.11;100.00
22261;BME280;11299;43.202;27.920;2023-04-19T06:07:52;100536.66;;;12.17;100.00
22261;BME280;11299;43.202;27.920;2023-04-19T06:10:21;100642.97;;;12.84;100.00
22261;BME280;11299;43.202;27.920;2023-04-19T06:12:47;100635.16;;;12.76;100.00
22261;BME280;11299;43.202;27.920;2023-04-19T06:15:12;100668.47;;;12.76;100.00
22261;BME280;11299;43.202;27.920;2023-04-19T06:17:38;100660.06;;;12.61;100.00
22261;BME280;11299;43.202;27.920;2023-04-19T06:20:04;100639.78;;;12.56;100.00
22261;BME280;11299;43.202;27.920;2023-04-19T06:22:31;100658.41;;;12.65;100.00
22261;BME280;11299;43.202;27.920;2023-04-19T06:24:57;100628.88;;;12.39;100.00
22261;BME280;11299;43.202;27.920;2023-04-19T06:27:22;100662.16;;;12.44;100.00
22261;BME280;11299;43.202;27.920;2023-04-19T06:29:48;100632.63;;;12.23;100.00
22261;BME280;11299;43.202;27.920;2023-04-19T06:32:13;100689.63;;;12.46;100.00
22261;BME280;11299;43.202;27.920;2023-04-19T06:34:39;100594.16;;;11.90;100.00
22261;BME280;11299;43.202;27.920;2023-04-19T06:37:04;100694.59;;;12.44;100.00
22261;BME280;11299;43.202;27.920;2023-04-19T06:39:30;100606.88;;;11.86;100.00
22261;BME280;11299;43.202;27.920;2023-04-19T06:41:55;100655.84;;;12.12;100.00
22261;BME280;11299;43.202;27.920;2023-04-19T06:44:20;100612.09;;;11.82;100.00
22261;BME280;11299;43.202;27.920;2023-04-19T06:46:46;100731.69;;;12.32;100.00
22261;BME280;11299;43.202;27.920;2023-04-19T06:49:11;100700.72;;;12.46;100.00
22261;BME280;11299;43.202;27.920;2023-04-19T06:51:38;100304.53;;;9.94;100.00
22261;BME280;11299;43.202;27.920;2023-04-19T06:54:03;100678.63;;;12.19;100.00
22261;BME280;11299;43.202;27.920;2023-04-19T06:56:41;100711.31;;;12.17;100.00
22261;BME280;11299;43.202;27.920;2023-04-19T06:59:10;100704.78;;;12.28;100.00
22261;BME280;11299;43.202;27.920;2023-04-19T07:01:36;100736.75;;;12.41;100.00
22261;BME280;11299;43.202;27.920;2023-04-19T07:04:02;100681.34;;;12.14;100.00
22261;BME280;11299;43.202;27.920;2023-04-19T07:06:28;100697.56;;;12.32;100.00
22261;BME280;11299;43.202;27.920;2023-04-19T07:08:54;100592.91;;;11.76;100.00
22261;BME280;11299;43.202;27.920;2023-04-19T07:11:19;100668.53;;;12.03;100.00
22261;BME280;11299;43.202;27.920;2023-04-19T07:13:44;100736.78;;;12.09;100.00
22261;BME280;11299;43.202;27.920;2023-04-19T07:16:10;100685.84;;;12.20;100.00
22261;BME280;11299;43.202;27.920;2023-04-19T07:18:35;100534.50;;;11.19;100.00
22261;BME280;11299;43.202;27.920;2023-04-19T07:21:01;100714.84;;;12.39;100.00
22261;BME280;11299;43.202;27.920;2023-04-19T07:23:26;100722.03;;;12.40;100.00
22261;BME280;11299;43.202;27.920;2023-04-19T07:25:52;100710.84;;;12.25;100.00
22261;BME280;11299;43.202;27.920;2023-04-19T07:28:17;100646.75;;;11.85;100.00
22261;BME280;11299;43.202;27.920;2023-04-19T07:30:43;100641.72;;;11.82;100.00
22261;BME280;11299;43.202;27.920;2023-04-19T07:33:10;100745.16;;;12.51;100.00
22261;BME280;11299;43.202;27.920;2023-04-19T07:35:37;100734.75;;;12.36;100.00
22261;BME280;11299;43.202;27.920;2023-04-19T07:38:03;100746.84;;;12.57;100.00
22261;BME280;11299;43.202;27.920;2023-04-19T07:40:28;100654.63;;;11.98;100.00
22261;BME280;11299;43.202;27.920;2023-04-19T07:42:55;100723.16;;;12.39;100.00
22261;BME280;11299;43.202;27.920;2023-04-19T07:45:20;100630.06;;;11.80;100.00
22261;BME280;11299;43.202;27.920;2023-04-19T07:47:46;100762.44;;;12.63;100.00
22261;BME280;11299;43.202;27.920;2023-04-19T07:50:11;100745.88;;;12.73;100.00
22261;BME280;11299;43.202;27.920;2023-04-19T07:52:37;100465.88;;;10.89;100.00
22261;BME280;11299;43.202;27.920;2023-04-19T07:55:02;100649.59;;;11.95;100.00
22261;BME280;11299;43.202;27.920;2023-04-19T07:57:28;100741.50;;;12.45;100.00
22261;BME280;11299;43.202;27.920;2023-04-19T07:59:53;100606.56;;;11.56;100.00
22261;BME280;11299;43.202;27.920;2023-04-19T08:02:25;100664.31;;;11.95;100.00
22261;BME280;11299;43.202;27.920;2023-04-19T08:04:51;100714.97;;;11.91;100.00
22261;BME280;11299;43.202;27.920;2023-04-19T08:07:16;100728.59;;;12.24;100.00
22261;BME280;11299;43.202;27.920;2023-04-19T08:09:42;100707.31;;;12.03;100.00
22261;BME280;11299;43.202;27.920;2023-04-19T08:12:07;100767.41;;;12.24;100.00
22261;BME280;11299;43.202;27.920;2023-04-19T08:14:33;100692.16;;;11.79;100.00
22261;BME280;11299;43.202;27.920;2023-04-19T08:16:59;100756.06;;;11.99;100.00
22261;BME280;11299;43.202;27.920;2023-04-19T08:19:24;100804.78;;;12.21;100.00
22261;BME280;11299;43.202;27.920;2023-04-19T08:21:49;100718.19;;;11.83;100.00
22261;BME280;11299;43.202;27.920;2023-04-19T08:24:15;100776.56;;;11.98;100.00
22261;BME280;11299;43.202;27.920;2023-04-19T08:26:40;100772.66;;;11.94;100.00
22261;BME280;11299;43.202;27.920;2023-04-19T08:29:06;100766.81;;;11.69;100.00
22261;BME280;11299;43.202;27.920;2023-04-19T08:31:32;100724.19;;;11.26;100.00
22261;BME280;11299;43.202;27.920;2023-04-19T08:33:57;100706.25;;;11.29;100.00
22261;BME280;11299;43.202;27.920;2023-04-19T08:36:24;100784.16;;;11.81;100.00
22261;BME280;11299;43.202;27.920;2023-04-19T08:38:51;100672.13;;;11.02;100.00
22261;BME280;11299;43.202;27.920;2023-04-19T08:41:17;100765.31;;;11.83;100.00
22261;BME280;11299;43.202;27.920;2023-04-19T08:43:44;100666.41;;;11.08;100.00
22261;BME280;11299;43.202;27.920;2023-04-19T08:46:11;100597.84;;;10.67;100.00
22261;BME280;11299;43.202;27.920;2023-04-19T08:48:37;100757.72;;;11.52;100.00
22261;BME280;11299;43.202;27.920;2023-04-19T08:51:05;100398.63;;;9.44;100.00
22261;BME280;11299;43.202;27.920;2023-04-19T08:53:33;100719.41;;;11.44;100.00
22261;BME280;11299;43.202;27.920;2023-04-19T08:56:00;100755.75;;;11.69;100.00
22261;BME280;11299;43.202;27.920;2023-04-19T08:58:26;100724.25;;;11.53;100.00
22261;BME280;11299;43.202;27.920;2023-04-19T09:00:55;100747.97;;;11.66;100.00
22261;BME280;11299;43.202;27.920;2023-04-19T09:03:20;100748.63;;;11.78;100.00
22261;BME280;11299;43.202;27.920;2023-04-19T09:05:46;100681.69;;;11.37;100.00
22261;BME280;11299;43.202;27.920;2023-04-19T09:08:29;100706.72;;;11.69;100.00
22261;BME280;11299;43.202;27.920;2023-04-19T09:10:59;100733.13;;;11.77;100.00
22261;BME280;11299;43.202;27.920;2023-04-19T09:13:26;100659.75;;;11.58;100.00
22261;BME280;11299;43.202;27.920;2023-04-19T09:15:51;100640.84;;;11.50;100.00
22261;BME280;11299;43.202;27.920;2023-04-19T09:18:26;100751.19;;;12.11;100.00
22261;BME280;11299;43.202;27.920;2023-04-19T09:20:52;100734.44;;;12.27;100.00
22261;BME280;11299;43.202;27.920;2023-04-19T09:23:26;100681.19;;;11.94;100.00
22261;BME280;11299;43.202;27.920;2023-04-19T09:26:00;100785.00;;;12.71;100.00
22261;BME280;11299;43.202;27.920;2023-04-19T09:28:27;100781.44;;;12.81;100.00
22261;BME280;11299;43.202;27.920;2023-04-19T09:30:53;100726.16;;;12.69;100.00
22261;BME280;11299;43.202;27.920;2023-04-19T09:33:38;100730.66;;;12.80;100.00
22261;BME280;11299;43.202;27.920;2023-04-19T09:36:05;100734.56;;;12.84;100.00
22261;BME280;11299;43.202;27.920;2023-04-19T09:38:51;100744.41;;;13.02;100.00
22261;BME280;11299;43.202;27.920;2023-04-19T09:41:16;100625.91;;;12.14;100.00
22261;BME280;11299;43.202;27.920;2023-04-19T09:43:42;100763.09;;;13.16;100.00
22261;BME280;11299;43.202;27.920;2023-04-19T09:46:08;100747.50;;;13.05;100.00
22261;BME280;11299;43.202;27.920;2023-04-19T09:48:54;100717.28;;;12.72;100.00
22261;BME280;11299;43.202;27.920;2023-04-19T09:51:20;100722.72;;;12.57;100.00
22261;BME280;11299;43.202;27.920;2023-04-19T09:53:47;100775.03;;;12.75;100.00
22261;BME280;11299;43.202;27.920;2023-04-19T09:56:13;100684.88;;;12.04;100.00
22261;BME280;11299;43.202;27.920;2023-04-19T09:58:38;100746.41;;;12.33;100.00
22261;BME280;11299;43.202;27.920;2023-04-19T10:01:04;100778.38;;;12.46;100.00
22261;BME280;11299;43.202;27.920;2023-04-19T10:03:34;100772.53;;;12.42;100.00
22261;BME280;11299;43.202;27.920;2023-04-19T10:06:00;100668.03;;;11.79;100.00
22261;BME280;11299;43.202;27.920;2023-04-19T10:08:26;100706.22;;;12.04;100.00
22261;BME280;11299;43.202;27.920;2023-04-19T10:10:53;100772.53;;;12.42;100.00
22261;BME280;11299;43.202;27.920;2023-04-19T10:13:20;100766.78;;;12.49;100.00
22261;BME280;11299;43.202;27.920;2023-04-19T10:15:47;100727.88;;;12.39;100.00
22261;BME280;11299;43.202;27.920;2023-04-19T10:18:13;100769.47;;;12.75;100.00
22261;BME280;11299;43.202;27.920;2023-04-19T10:20:54;100704.78;;;12.70;100.00
22261;BME280;11299;43.202;27.920;2023-04-19T10:23:21;100773.13;;;13.23;100.00
22261;BME280;11299;43.202;27.920;2023-04-19T10:25:47;100692.09;;;12.84;100.00
22261;BME280;11299;43.202;27.920;2023-04-19T10:28:16;100674.66;;;12.93;100.00
22261;BME280;11299;43.202;27.920;2023-04-19T10:30:59;100677.53;;;13.08;100.00
22261;BME280;11299;43.202;27.920;2023-04-19T10:33:30;100770.22;;;13.54;100.00
22261;BME280;11299;43.202;27.920;2023-04-19T10:35:59;100662.41;;;12.89;100.00
22261;BME280;11299;43.202;27.920;2023-04-19T10:38:47;100746.44;;;13.16;100.00
22261;BME280;11299;43.202;27.920;2023-04-19T10:41:15;100770.72;;;13.41;100.00
22261;BME280;11299;43.202;27.920;2023-04-19T10:43:46;100748.06;;;13.12;100.00
22261;BME280;11299;43.202;27.920;2023-04-19T10:48:59;100738.50;;;12.93;100.00
22261;BME280;11299;43.202;27.920;2023-04-19T10:51:33;100747.38;;;12.90;100.00
22261;BME280;11299;43.202;27.920;2023-04-19T11:01:39;100651.91;;;12.45;100.00
22261;BME280;11299;43.202;27.920;2023-04-19T11:07:05;100648.22;;;12.34;100.00
22261;BME280;11299;43.202;27.920;2023-04-19T11:09:38;100559.72;;;11.81;100.00
22261;BME280;11299;43.202;27.920;2023-04-19T11:12:17;100769.13;;;13.03;100.00
22261;BME280;11299;43.202;27.920;2023-04-19T11:14:52;100668.97;;;12.68;100.00
22261;BME280;11299;43.202;27.920;2023-04-19T11:17:27;100736.84;;;12.97;100.00
22261;BME280;11299;43.202;27.920;2023-04-19T11:25:24;100761.75;;;12.82;100.00
22261;BME280;11299;43.202;27.920;2023-04-19T11:27:49;100762.34;;;12.89;100.00
22261;BME280;11299;43.202;27.920;2023-04-19T11:30:18;100657.66;;;12.33;100.00
22261;BME280;11299;43.202;27.920;2023-04-19T11:32:53;100764.47;;;13.14;100.00
22261;BME280;11299;43.202;27.920;2023-04-19T11:35:28;100630.09;;;12.16;100.00
22261;BME280;11299;43.202;27.920;2023-04-19T11:37:57;100636.25;;;12.23;100.00
22261;BME280;11299;43.202;27.920;2023-04-19T11:40:24;100757.94;;;12.98;100.00
22261;BME280;11299;43.202;27.920;2023-04-19T11:42:55;100767.69;;;12.59;100.00
22261;BME280;11299;43.202;27.920;2023-04-19T11:45:26;100769.41;;;12.70;100.00
22261;BME280;11299;43.202;27.920;2023-04-19T11:47:54;100740.13;;;12.89;100.00
22261;BME280;11299;43.202;27.920;2023-04-19T11:50:43;100760.13;;;12.91;100.00
22261;BME280;11299;43.202;27.920;2023-04-19T11:53:21;100746.75;;;12.83;100.00
22261;BME280;11299;43.202;27.920;2023-04-19T11:55:52;100651.16;;;12.17;100.00
22261;BME280;11299;43.202;27.920;2023-04-19T12:00:50;100694.38;;;12.45;100.00
22261;BME280;11299;43.202;27.920;2023-04-19T12:03:22;100752.34;;;12.88;100.00
22261;BME280;11299;43.202;27.920;2023-04-19T12:05:55;100764.91;;;13.01;100.00
22261;BME280;11299;43.202;27.920;2023-04-19T12:08:35;100697.13;;;12.45;100.00
22261;BME280;11299;43.202;27.920;2023-04-19T12:11:02;100761.72;;;13.19;100.00
22261;BME280;11299;43.202;27.920;2023-04-19T12:13:28;100634.44;;;12.49;100.00
22261;BME280;11299;43.202;27.920;2023-04-19T12:15:54;100753.13;;;13.26;100.00
22261;BME280;11299;43.202;27.920;2023-04-19T12:18:21;100705.28;;;13.03;100.00
22261;BME280;11299;43.202;27.920;2023-04-19T12:20:48;100743.16;;;13.35;100.00
22261;BME280;11299;43.202;27.920;2023-04-19T12:23:14;100584.84;;;12.53;100.00
22261;BME280;11299;43.202;27.920;2023-04-19T12:25:42;100690.97;;;13.37;100.00
22261;BME280;11299;43.202;27.920;2023-04-19T12:28:07;100737.75;;;13.70;100.00
22261;BME280;11299;43.202;27.920;2023-04-19T12:30:37;100720.03;;;14.11;100.00
22261;BME280;11299;43.202;27.920;2023-04-19T12:33:03;100696.69;;;14.27;100.00
22261;BME280;11299;43.202;27.920;2023-04-19T12:35:29;100682.47;;;14.18;100.00
22261;BME280;11299;43.202;27.920;2023-04-19T12:37:57;100638.53;;;14.26;100.00
22261;BME280;11299;43.202;27.920;2023-04-19T12:40:23;100697.22;;;14.59;100.00
22261;BME280;11299;43.202;27.920;2023-04-19T12:42:50;100653.84;;;14.38;100.00
22261;BME280;11299;43.202;27.920;2023-04-19T12:45:16;100706.16;;;14.51;100.00
22261;BME280;11299;43.202;27.920;2023-04-19T12:47:42;100697.25;;;14.49;100.00
22261;BME280;11299;43.202;27.920;2023-04-19T12:50:08;100725.88;;;14.65;100.00